Time;durP1;ratioP1;P1;durP2;ratioP2;P2;SDS_P1;SDS_P2;PMS_P1;PMS_P2;Temp;Humidity;BMP_temperature;BMP_pressure;BME280_temperature;BME280_humidity;BME280_pressure;Samples;Min_cycle;Max_cycle;Signal;HPM_P1;HPM_P2
2022/05/24 00:00:30;;;;;;;20.35;15.43;;;15.00;99.90;;;;;;4996706;28;20447;-71
2022/05/24 00:02:56;;;;;;;24.35;17.45;;;15.00;99.90;;;;;;4996601;28;20030;-72
2022/05/24 00:05:25;;;;;;;23.52;16.75;;;15.10;99.90;;;;;;4995552;28;20430;-72
2022/05/24 00:07:51;;;;;;;19.77;15.90;;;15.00;99.90;;;;;;4995281;28;20026;-72
2022/05/24 00:10:21;;;;;;;22.60;15.80;;;15.10;99.90;;;;;;4996812;28;20036;-71
2022/05/24 00:12:47;;;;;;;22.02;17.45;;;15.10;99.90;;;;;;5011385;28;20046;-72
2022/05/24 00:15:27;;;;;;;30.35;17.70;;;15.10;99.90;;;;;;4996691;28;20441;-72
2022/05/24 00:18:09;;;;;;;21.80;17.15;;;15.10;99.90;;;;;;4995421;28;20113;-71
2022/05/24 00:20:41;;;;;;;23.48;17.13;;;15.20;99.90;;;;;;4996606;28;20356;-72
2022/05/24 00:23:08;;;;;;;20.27;16.85;;;15.10;99.90;;;;;;4995415;28;20548;-72
2022/05/24 00:25:36;;;;;;;23.15;17.45;;;15.10;99.90;;;;;;4996464;28;20080;-72
2022/05/24 00:28:03;;;;;;;23.38;17.38;;;15.10;99.90;;;;;;4996436;28;20038;-72
2022/05/24 00:30:29;;;;;;;26.50;21.10;;;15.20;99.90;;;;;;4996326;28;20030;-72
2022/05/24 00:32:55;;;;;;;26.75;20.95;;;15.20;99.90;;;;;;4996327;28;20034;-73
2022/05/24 00:35:21;;;;;;;30.70;24.60;;;15.20;99.90;;;;;;4992724;28;20030;-71
2022/05/24 00:37:48;;;;;;;31.50;23.65;;;15.20;99.90;;;;;;4995383;28;20406;-72
2022/05/24 00:40:55;;;;;;;32.00;24.30;;;15.20;99.90;;;;;;4995279;28;20076;-74
2022/05/24 00:43:29;;;;;;;29.75;24.00;;;15.10;99.90;;;;;;4964595;28;20038;-72
2022/05/24 00:46:01;;;;;;;34.70;24.38;;;15.20;99.90;;;;;;4996430;28;20041;-72
2022/05/24 00:48:42;;;;;;;32.05;24.52;;;15.10;99.90;;;;;;4996475;28;20366;-71
2022/05/24 00:51:10;;;;;;;30.58;24.98;;;15.10;99.90;;;;;;5011262;28;20022;-73
2022/05/24 00:53:42;;;;;;;34.75;25.70;;;15.10;99.90;;;;;;4996535;28;20023;-73
2022/05/24 00:56:15;;;;;;;36.85;28.05;;;15.10;99.90;;;;;;4996153;28;20022;-73
2022/05/24 00:58:47;;;;;;;30.70;24.07;;;15.20;99.90;;;;;;4995013;28;20534;-73
2022/05/24 01:01:37;;;;;;;32.25;24.75;;;15.10;99.90;;;;;;4995859;28;20280;-74
2022/05/24 01:04:04;;;;;;;34.05;26.15;;;15.10;99.90;;;;;;4995824;28;20069;-71
2022/05/24 01:06:30;;;;;;;33.67;25.90;;;15.10;99.90;;;;;;4995950;28;20455;-72
2022/05/24 01:09:00;;;;;;;31.38;24.58;;;15.10;99.90;;;;;;4995689;28;20026;-71
2022/05/24 01:11:27;;;;;;;32.88;24.20;;;15.10;99.90;;;;;;4995571;28;20026;-71
2022/05/24 01:13:55;;;;;;;30.25;22.92;;;15.10;99.90;;;;;;4995613;28;20043;-71
2022/05/24 01:16:21;;;;;;;29.88;23.75;;;15.10;99.90;;;;;;4995777;28;20045;-73
2022/05/24 01:18:46;;;;;;;34.75;23.88;;;15.10;99.90;;;;;;4994317;28;20475;-71
2022/05/24 01:21:15;;;;;;;34.67;25.02;;;15.00;99.90;;;;;;4994381;28;20041;-73
2022/05/24 01:24:02;;;;;;;30.50;23.23;;;15.00;99.90;;;;;;4995636;28;20497;-72
2022/05/24 01:26:45;;;;;;;33.20;24.55;;;15.00;99.90;;;;;;5010706;28;20042;-72
2022/05/24 01:29:10;;;;;;;37.80;25.83;;;14.90;99.90;;;;;;4995444;28;20033;-71
2022/05/24 01:37:09;;;;;;;35.97;26.55;;;14.90;99.90;;;;;;4995517;28;20537;-71
2022/05/24 01:39:35;;;;;;;39.53;27.88;;;14.90;99.90;;;;;;4995331;28;20030;-72
2022/05/24 01:42:02;;;;;;;40.80;29.95;;;14.80;99.90;;;;;;4994131;28;20040;-73
2022/05/24 01:44:40;;;;;;;39.10;28.33;;;14.80;99.90;;;;;;4995246;28;20055;-71
2022/05/24 01:47:05;;;;;;;42.17;29.30;;;14.80;99.90;;;;;;4995065;28;20467;-72
2022/05/24 01:49:35;;;;;;;41.30;30.42;;;14.80;99.90;;;;;;4993814;28;20057;-71
2022/05/24 01:52:23;;;;;;;41.65;30.73;;;14.80;99.90;;;;;;4992742;28;20033;-71
2022/05/24 01:54:54;;;;;;;40.72;29.95;;;14.80;99.90;;;;;;4994743;28;20026;-72
2022/05/24 01:57:30;;;;;;;35.88;27.27;;;14.70;99.90;;;;;;4994523;28;20467;-72
2022/05/24 01:59:57;;;;;;;37.45;27.50;;;14.60;99.90;;;;;;4993551;28;20113;-71
2022/05/24 02:02:24;;;;;;;39.17;29.00;;;14.60;99.90;;;;;;4994576;28;20034;-73
2022/05/24 02:04:49;;;;;;;39.15;26.52;;;14.50;99.90;;;;;;4994613;28;20394;-72
2022/05/24 02:07:22;;;;;;;37.65;26.25;;;14.50;99.90;;;;;;4994451;28;20027;-71
2022/05/24 02:09:51;;;;;;;37.67;26.00;;;14.50;99.90;;;;;;5009708;28;20101;-73
2022/05/24 02:12:25;;;;;;;33.13;24.20;;;14.40;99.90;;;;;;4994326;28;20482;-72
2022/05/24 02:15:00;;;;;;;32.50;24.20;;;14.40;99.90;;;;;;4986145;28;20383;-71
2022/05/24 02:17:51;;;;;;;30.45;21.85;;;14.30;99.90;;;;;;4994664;28;20070;-72
2022/05/24 02:20:26;;;;;;;30.67;20.63;;;14.30;99.90;;;;;;4993392;28;20019;-71
2022/05/24 02:22:52;;;;;;;24.60;18.42;;;14.30;99.90;;;;;;4994732;28;20030;-72
2022/05/24 02:25:22;;;;;;;28.13;18.88;;;14.30;99.90;;;;;;4994439;28;20035;-71
2022/05/24 02:27:49;;;;;;;25.85;17.45;;;14.30;99.90;;;;;;4994516;28;20026;-71
2022/05/24 02:30:19;;;;;;;20.45;14.52;;;14.30;99.90;;;;;;4994676;28;20026;-72
2022/05/24 02:32:44;;;;;;;22.65;16.13;;;14.30;99.90;;;;;;4994595;28;20034;-71
2022/05/24 02:35:11;;;;;;;22.63;13.70;;;14.20;99.90;;;;;;4994311;28;20390;-71
2022/05/24 02:37:37;;;;;;;19.13;12.25;;;14.30;99.90;;;;;;4994537;28;20026;-71
2022/05/24 02:42:48;;;;;;;20.75;12.93;;;14.30;99.90;;;;;;4994351;28;20097;-71
2022/05/24 02:45:13;;;;;;;23.08;12.32;;;14.20;99.90;;;;;;4992958;28;20038;-72
2022/05/24 02:47:40;;;;;;;20.25;11.55;;;14.10;99.90;;;;;;4993539;28;20034;-72
2022/05/24 02:50:09;;;;;;;20.55;11.52;;;14.00;99.90;;;;;;4994485;28;20113;-71
2022/05/24 02:52:36;;;;;;;17.75;10.98;;;14.00;99.90;;;;;;4993983;28;20062;-71
2022/05/24 02:55:03;;;;;;;16.75;9.40;;;13.90;99.90;;;;;;4994229;28;20465;-72
2022/05/24 02:57:28;;;;;;;16.33;9.48;;;13.90;99.90;;;;;;5009232;28;20033;-73
2022/05/24 02:59:54;;;;;;;19.00;9.55;;;13.80;99.90;;;;;;4994208;28;20030;-72
2022/05/24 03:02:20;;;;;;;18.38;8.98;;;13.80;99.90;;;;;;4994323;28;20122;-72
2022/05/24 03:04:45;;;;;;;17.85;9.02;;;13.70;99.90;;;;;;4994579;28;20037;-71
2022/05/24 03:09:55;;;;;;;16.48;7.63;;;13.70;99.90;;;;;;4994236;28;20517;-71
2022/05/24 03:15:05;;;;;;;12.75;7.22;;;13.60;99.90;;;;;;4994324;28;20037;-72
2022/05/24 03:17:31;;;;;;;14.75;6.68;;;13.60;99.90;;;;;;4994164;28;20031;-72
2022/05/24 03:19:57;;;;;;;16.33;7.65;;;13.60;99.90;;;;;;4993856;28;20022;-73
2022/05/24 03:22:23;;;;;;;12.45;6.25;;;13.60;99.90;;;;;;4993033;28;20092;-73
2022/05/24 03:24:49;;;;;;;14.05;6.28;;;13.70;99.90;;;;;;4992765;28;20046;-72
2022/05/24 03:27:14;;;;;;;17.70;7.18;;;13.70;99.90;;;;;;4993792;28;20109;-71
2022/05/24 03:29:45;;;;;;;12.60;6.38;;;13.60;99.90;;;;;;4992625;28;20084;-73
2022/05/24 03:32:13;;;;;;;10.52;5.70;;;13.70;99.90;;;;;;5008679;28;20034;-71
2022/05/24 03:34:39;;;;;;;12.90;5.95;;;13.70;99.90;;;;;;4992395;28;20177;-72
2022/05/24 03:37:06;;;;;;;14.82;5.28;;;13.70;99.90;;;;;;4993711;28;20030;-72
2022/05/24 03:39:32;;;;;;;11.07;4.75;;;13.80;99.90;;;;;;4993651;28;20073;-71
2022/05/24 03:41:58;;;;;;;10.60;5.50;;;13.70;99.80;;;;;;4993715;28;20033;-70
2022/05/24 03:44:24;;;;;;;13.18;5.80;;;13.70;99.80;;;;;;4993459;28;20449;-70
2022/05/24 03:46:50;;;;;;;14.55;6.25;;;13.60;99.60;;;;;;4993606;28;20434;-72
2022/05/24 03:49:16;;;;;;;11.95;5.82;;;13.60;99.60;;;;;;4992451;28;20383;-72
2022/05/24 03:51:42;;;;;;;12.95;5.50;;;13.60;99.70;;;;;;4993633;28;20038;-72
2022/05/24 03:54:08;;;;;;;12.98;5.88;;;13.60;99.80;;;;;;4993838;28;20093;-72
2022/05/24 03:56:36;;;;;;;16.58;5.70;;;13.60;99.70;;;;;;4993516;28;20037;-71
2022/05/24 03:59:04;;;;;;;10.32;5.57;;;13.60;99.70;;;;;;4996746;28;20426;-74
2022/05/24 04:01:29;;;;;;;12.73;5.50;;;13.70;99.80;;;;;;5012530;28;20058;-72
2022/05/24 04:03:55;;;;;;;13.55;5.53;;;13.60;99.70;;;;;;4997274;28;20453;-72
2022/05/24 04:06:21;;;;;;;16.05;6.15;;;13.50;99.60;;;;;;4997134;28;20034;-74
2022/05/24 04:08:46;;;;;;;11.50;5.10;;;13.50;99.70;;;;;;4997061;28;20034;-74
2022/05/24 04:11:13;;;;;;;13.15;5.45;;;13.50;99.70;;;;;;4997061;28;20038;-71
2022/05/24 04:13:41;;;;;;;13.25;6.00;;;13.50;99.70;;;;;;4995643;28;20085;-73
2022/05/24 04:16:08;;;;;;;11.70;6.10;;;13.50;99.80;;;;;;4997288;28;20072;-72
2022/05/24 04:18:34;;;;;;;15.93;6.22;;;13.60;99.80;;;;;;4995685;28;20033;-72
2022/05/24 04:21:01;;;;;;;19.95;6.40;;;13.50;99.70;;;;;;4996847;28;20030;-73
2022/05/24 04:23:27;;;;;;;12.23;6.18;;;13.60;99.70;;;;;;4996971;28;20057;-72
2022/05/24 04:25:55;;;;;;;14.45;6.78;;;13.50;99.70;;;;;;4996880;28;20030;-73
2022/05/24 04:28:22;;;;;;;11.57;5.25;;;13.50;99.70;;;;;;4996760;28;20030;-73
2022/05/24 04:30:50;;;;;;;14.13;6.30;;;13.50;99.70;;;;;;5011799;28;20053;-73
2022/05/24 04:33:16;;;;;;;16.13;7.28;;;13.50;99.60;;;;;;4996892;28;20029;-74
2022/05/24 04:35:43;;;;;;;13.90;7.00;;;13.70;99.60;;;;;;4995493;28;20070;-72
2022/05/24 04:38:09;;;;;;;12.40;6.10;;;13.50;99.60;;;;;;4996539;28;20031;-75
2022/05/24 04:43:19;;;;;;;11.82;7.43;;;13.60;99.60;;;;;;4996887;28;20046;-73
2022/05/24 04:45:45;;;;;;;13.07;6.97;;;13.60;99.50;;;;;;4996454;28;20026;-74
2022/05/24 04:48:11;;;;;;;12.05;6.63;;;13.70;99.50;;;;;;4996233;28;20066;-73
2022/05/24 04:50:37;;;;;;;14.10;6.25;;;13.60;99.40;;;;;;4996137;28;20026;-73
2022/05/24 04:53:03;;;;;;;12.20;6.57;;;13.70;99.40;;;;;;4995887;28;20047;-75
2022/05/24 04:55:29;;;;;;;12.90;6.53;;;13.70;99.40;;;;;;4996127;28;20018;-75
2022/05/24 04:57:56;;;;;;;15.73;6.65;;;13.60;99.30;;;;;;4994521;28;20030;-74
2022/05/24 05:00:22;;;;;;;14.40;6.65;;;13.70;99.40;;;;;;5010654;28;20033;-73
2022/05/24 05:02:48;;;;;;;12.85;6.45;;;13.70;99.30;;;;;;5011181;28;20034;-75
2022/05/24 05:05:15;;;;;;;14.02;7.18;;;13.70;99.30;;;;;;4996250;28;20073;-73
2022/05/24 05:07:41;;;;;;;12.57;7.70;;;13.70;99.20;;;;;;4995622;28;20071;-73
2022/05/24 05:10:08;;;;;;;11.40;8.02;;;13.70;99.20;;;;;;4995233;28;20035;-73
2022/05/24 05:12:34;;;;;;;13.50;8.98;;;13.70;99.10;;;;;;4995612;28;20193;-74
2022/05/24 05:14:59;;;;;;;17.35;8.68;;;13.80;99.10;;;;;;4995972;28;20109;-72
2022/05/24 05:17:25;;;;;;;12.02;7.30;;;13.70;99.10;;;;;;4995974;28;20431;-72
2022/05/24 05:19:51;;;;;;;14.73;8.48;;;13.70;99.10;;;;;;4995768;28;20030;-72
2022/05/24 05:22:18;;;;;;;14.90;8.90;;;13.70;99.10;;;;;;4995378;28;20038;-73
2022/05/24 05:24:44;;;;;;;19.33;9.45;;;13.70;99.10;;;;;;4994165;28;20022;-72
2022/05/24 05:27:10;;;;;;;17.60;10.35;;;13.70;99.10;;;;;;4995759;28;20041;-73
2022/05/24 05:32:22;;;;;;;14.60;9.63;;;13.60;99.00;;;;;;4995459;28;20116;-72
2022/05/24 05:34:48;;;;;;;16.58;9.70;;;13.60;99.10;;;;;;4995527;28;20142;-73
2022/05/24 05:37:15;;;;;;;17.98;9.10;;;13.70;99.10;;;;;;4995299;28;20054;-73
2022/05/24 05:39:41;;;;;;;17.42;9.43;;;13.70;99.00;;;;;;4996292;28;20053;-74
2022/05/24 05:42:07;;;;;;;14.30;8.27;;;13.70;99.00;;;;;;4999529;28;20402;-73
2022/05/24 05:44:33;;;;;;;16.80;9.35;;;13.70;99.00;;;;;;5004817;28;20152;-73
2022/05/24 05:46:58;;;;;;;15.23;9.57;;;13.70;99.00;;;;;;5001806;28;20382;-73
2022/05/24 05:49:24;;;;;;;16.80;9.48;;;13.70;98.90;;;;;;5011773;28;20499;-73
2022/05/24 05:51:50;;;;;;;17.98;8.25;;;13.80;99.00;;;;;;4996684;28;20030;-72
2022/05/24 05:54:15;;;;;;;16.35;9.02;;;13.80;99.10;;;;;;4992703;28;20486;-73
2022/05/24 05:56:41;;;;;;;12.20;8.75;;;13.80;98.90;;;;;;4993875;28;20077;-81
2022/05/24 05:59:07;;;;;;;14.90;9.32;;;13.90;98.80;;;;;;4995566;28;20482;-80
2022/05/24 06:01:33;;;;;;;18.95;10.82;;;13.90;98.70;;;;;;4995756;28;20049;-82
2022/05/24 06:04:00;;;;;;;16.20;9.80;;;13.90;98.50;;;;;;4995246;28;20446;-80
2022/05/24 06:06:30;;;;;;;15.23;9.20;;;13.90;98.50;;;;;;4981794;28;20085;-82
2022/05/24 06:08:56;;;;;;;13.75;10.38;;;13.90;98.40;;;;;;4974348;28;20022;-83
2022/05/24 06:11:23;;;;;;;14.13;8.95;;;13.90;98.40;;;;;;4975643;28;20032;-75
2022/05/24 06:13:49;;;;;;;14.13;9.43;;;13.80;98.30;;;;;;4974105;28;20047;-79
2022/05/24 06:16:15;;;;;;;15.95;10.05;;;13.90;98.40;;;;;;4975825;28;20034;-82
2022/05/24 06:18:41;;;;;;;13.63;9.35;;;14.00;98.20;;;;;;4976482;28;20101;-74
2022/05/24 06:21:07;;;;;;;15.82;9.02;;;14.00;98.20;;;;;;4972914;28;20030;-74
2022/05/24 06:23:32;;;;;;;17.95;11.07;;;14.00;98.20;;;;;;4974655;28;20085;-81
2022/05/24 06:25:58;;;;;;;13.68;8.57;;;14.10;98.10;;;;;;4958757;28;20372;-82
2022/05/24 06:28:23;;;;;;;17.10;10.55;;;14.00;98.10;;;;;;4974857;28;20118;-81
2022/05/24 06:30:49;;;;;;;11.23;8.07;;;14.00;98.10;;;;;;4982119;28;20062;-84
2022/05/24 06:33:15;;;;;;;19.70;8.63;;;14.10;98.10;;;;;;4990198;28;20497;-82
2022/05/24 06:35:42;;;;;;;15.50;8.70;;;14.10;97.90;;;;;;4973939;28;20126;-82
2022/05/24 06:38:08;;;;;;;11.27;7.80;;;14.10;97.60;;;;;;4990573;28;20441;-83
2022/05/24 06:40:34;;;;;;;15.23;8.02;;;14.10;97.60;;;;;;4974859;28;20468;-84
2022/05/24 06:43:01;;;;;;;16.13;7.95;;;14.10;97.60;;;;;;4974043;28;20030;-83
2022/05/24 06:45:26;;;;;;;17.17;7.78;;;14.10;97.70;;;;;;4974972;28;20110;-84
2022/05/24 06:47:52;;;;;;;14.18;7.78;;;14.10;97.20;;;;;;4989912;28;20125;-82
2022/05/24 06:50:18;;;;;;;11.52;7.65;;;14.10;97.10;;;;;;4975078;28;20458;-82
2022/05/24 06:52:44;;;;;;;15.40;8.95;;;14.10;97.00;;;;;;4975031;28;20518;-83
2022/05/24 06:55:11;;;;;;;17.77;8.55;;;14.00;96.70;;;;;;4973466;28;20027;-84
2022/05/24 06:57:36;;;;;;;14.70;9.07;;;14.00;96.80;;;;;;4974696;28;20038;-83
2022/05/24 07:02:58;;;;;;;18.55;10.85;;;14.00;97.00;;;;;;4975052;28;20514;-82
2022/05/24 07:05:24;;;;;;;17.42;9.23;;;13.90;96.60;;;;;;4975514;28;20120;-81
2022/05/24 07:07:49;;;;;;;12.63;8.10;;;14.00;96.90;;;;;;4975099;28;20027;-82
2022/05/24 07:10:18;;;;;;;13.95;8.90;;;14.10;96.80;;;;;;4989953;28;20066;-83
2022/05/24 07:12:45;;;;;;;11.25;8.77;;;14.10;96.70;;;;;;4974594;28;20093;-82
2022/05/24 07:15:11;;;;;;;13.18;9.23;;;14.20;96.70;;;;;;4974209;28;20023;-83
2022/05/24 07:17:37;;;;;;;15.02;10.32;;;14.30;96.50;;;;;;4974814;28;20114;-84
2022/05/24 07:20:03;;;;;;;17.80;9.35;;;14.40;96.40;;;;;;4989951;28;20475;-81
2022/05/24 07:22:29;;;;;;;18.75;9.25;;;14.50;96.40;;;;;;4975320;28;20552;-82
2022/05/24 07:24:55;;;;;;;16.42;9.43;;;14.60;96.30;;;;;;4973498;28;20113;-83
2022/05/24 07:27:22;;;;;;;18.45;9.85;;;14.60;96.10;;;;;;4973726;28;20475;-80
2022/05/24 07:29:48;;;;;;;12.65;9.48;;;14.80;95.70;;;;;;4973603;28;20022;-83
2022/05/24 07:32:14;;;;;;;15.77;8.68;;;14.80;95.60;;;;;;4974023;28;20078;-81
2022/05/24 07:34:40;;;;;;;15.05;8.05;;;14.90;95.30;;;;;;4977923;28;20034;-81
2022/05/24 07:37:07;;;;;;;13.05;7.72;;;14.90;95.10;;;;;;4978168;28;20030;-82
2022/05/24 07:39:33;;;;;;;10.10;7.05;;;15.00;95.10;;;;;;4993112;28;20130;-82
2022/05/24 07:47:30;;;;;;;7.53;4.43;;;15.20;94.50;;;;;;4978463;28;20450;-81
2022/05/24 07:49:56;;;;;;;7.32;4.97;;;15.30;94.30;;;;;;4977032;28;20031;-83
2022/05/24 07:52:22;;;;;;;9.98;5.47;;;15.40;94.20;;;;;;4977429;28;20027;-80
2022/05/24 07:54:48;;;;;;;8.65;5.10;;;15.40;94.10;;;;;;4976854;28;20070;-81
2022/05/24 07:57:13;;;;;;;7.55;4.50;;;15.40;93.30;;;;;;4976545;28;20390;-83
2022/05/24 07:59:42;;;;;;;9.38;5.30;;;15.30;92.90;;;;;;4977730;28;20042;-83
2022/05/24 08:02:08;;;;;;;8.63;4.82;;;15.40;93.00;;;;;;4978109;28;20027;-81
2022/05/24 08:04:34;;;;;;;8.38;4.53;;;15.40;92.60;;;;;;4977937;28;20042;-83
2022/05/24 08:07:00;;;;;;;9.73;4.50;;;15.50;92.30;;;;;;4976584;28;20038;-83
2022/05/24 08:09:26;;;;;;;7.70;4.03;;;15.50;92.10;;;;;;4977463;28;20039;-82
2022/05/24 08:11:51;;;;;;;7.88;4.25;;;15.60;92.10;;;;;;4976457;28;20031;-81
2022/05/24 08:14:17;;;;;;;8.30;3.97;;;15.70;92.10;;;;;;4977974;28;20059;-82
2022/05/24 08:16:43;;;;;;;6.72;4.50;;;15.80;91.40;;;;;;4976192;28;20048;-83
2022/05/24 08:19:09;;;;;;;11.13;5.28;;;15.90;90.80;;;;;;4977692;28;20030;-84
2022/05/24 08:21:36;;;;;;;9.02;5.05;;;15.90;90.20;;;;;;4976906;28;20031;-82
2022/05/24 08:24:02;;;;;;;4.68;2.90;;;15.80;90.30;;;;;;4992645;28;20398;-84
2022/05/24 08:26:27;;;;;;;7.07;2.22;;;15.80;90.00;;;;;;4976522;28;20475;-83
2022/05/24 08:28:53;;;;;;;5.32;1.65;;;15.80;87.90;;;;;;4976279;28;20069;-82
2022/05/24 08:31:19;;;;;;;8.68;1.40;;;15.80;87.80;;;;;;4960341;28;20033;-83
2022/05/24 08:33:46;;;;;;;4.28;1.30;;;15.80;86.90;;;;;;4976164;28;20046;-83
2022/05/24 08:36:13;;;;;;;6.68;1.27;;;15.90;87.40;;;;;;4986315;28;20038;-84
2022/05/24 08:38:41;;;;;;;2.80;1.15;;;16.00;87.50;;;;;;4996215;28;20026;-83
2022/05/24 08:41:20;;;;;;;6.20;1.60;;;16.10;87.40;;;;;;4996724;28;20031;-81
2022/05/24 08:43:54;;;;;;;3.65;1.75;;;16.20;87.40;;;;;;5010860;28;20018;-78
2022/05/24 08:49:16;;;;;;;4.22;1.83;;;16.40;86.30;;;;;;4997757;28;20041;-83
2022/05/24 08:51:48;;;;;;;3.35;1.60;;;16.50;86.00;;;;;;5011549;28;20030;-81
2022/05/24 08:54:21;;;;;;;4.45;1.70;;;16.50;85.40;;;;;;5011586;28;20029;-82
2022/05/24 08:56:56;;;;;;;5.53;1.92;;;16.40;85.60;;;;;;5011724;28;20075;-82
2022/05/24 08:59:56;;;;;;;4.38;1.55;;;16.30;84.90;;;;;;5011344;28;20033;-85
2022/05/24 09:02:22;;;;;;;6.72;1.65;;;16.00;86.70;;;;;;5006975;28;20034;-79
2022/05/24 09:04:49;;;;;;;4.03;1.63;;;16.00;88.10;;;;;;4996506;28;20380;-83
2022/05/24 09:07:23;;;;;;;4.88;1.90;;;15.90;89.30;;;;;;4996297;28;20089;-81
2022/05/24 09:09:58;;;;;;;6.55;1.98;;;15.90;90.00;;;;;;5011513;28;20056;-80
2022/05/24 09:12:57;;;;;;;2.85;1.27;;;15.90;90.10;;;;;;5011205;28;20073;-82
2022/05/24 09:15:30;;;;;;;3.45;1.00;;;16.00;90.20;;;;;;4966442;28;20053;-74
2022/05/24 09:18:23;;;;;;;2.45;1.00;;;16.00;89.30;;;;;;4995998;28;20399;-74
2022/05/24 09:20:49;;;;;;;5.20;1.17;;;16.00;87.50;;;;;;5010901;28;20089;-75
2022/05/24 09:23:52;;;;;;;2.47;0.90;;;16.10;87.60;;;;;;4996010;28;20054;-74
2022/05/24 09:26:24;;;;;;;3.35;1.17;;;16.10;87.90;;;;;;4992727;28;20403;-74
2022/05/24 09:28:57;;;;;;;6.25;1.10;;;16.30;88.00;;;;;;4995747;28;20026;-73
2022/05/24 09:31:35;;;;;;;3.65;1.33;;;16.40;88.30;;;;;;4995475;28;20023;-75
2022/05/24 09:34:21;;;;;;;8.00;2.10;;;16.50;88.50;;;;;;4995789;28;20018;-73
2022/05/24 09:36:53;;;;;;;8.15;1.67;;;16.70;87.20;;;;;;4995467;28;20043;-74
2022/05/24 09:39:32;;;;;;;3.78;1.70;;;16.80;87.10;;;;;;5010971;28;20124;-74
2022/05/24 09:42:19;;;;;;;4.38;1.70;;;16.80;84.30;;;;;;4995726;28;20351;-73
2022/05/24 09:45:09;;;;;;;5.82;1.88;;;16.70;84.50;;;;;;4995203;28;20049;-73
2022/05/24 09:47:53;;;;;;;5.80;1.50;;;16.70;84.70;;;;;;4995198;28;20402;-74
2022/05/24 09:50:26;;;;;;;4.38;1.70;;;16.60;84.40;;;;;;4995657;28;20113;-81
2022/05/24 09:53:09;;;;;;;7.22;1.58;;;16.70;85.10;;;;;;4995370;28;20034;-81
2022/05/24 09:55:59;;;;;;;3.10;1.20;;;16.80;85.10;;;;;;5010389;28;20026;-84
2022/05/24 09:58:34;;;;;;;5.65;1.25;;;16.90;85.20;;;;;;4995306;28;20552;-73
2022/05/24 10:01:09;;;;;;;5.13;1.13;;;17.00;83.70;;;;;;4995025;28;20019;-75
2022/05/24 10:03:36;;;;;;;5.55;0.93;;;17.00;83.90;;;;;;4994979;28;20046;-73
2022/05/24 10:06:25;;;;;;;1.67;0.60;;;17.10;82.90;;;;;;4994828;28;20050;-75
2022/05/24 10:09:03;;;;;;;1.38;0.50;;;17.20;81.80;;;;;;4995009;28;20038;-73
2022/05/24 10:11:48;;;;;;;2.00;0.40;;;17.40;80.10;;;;;;4994646;28;20028;-75
2022/05/24 10:14:25;;;;;;;2.85;0.40;;;17.50;79.60;;;;;;4994630;28;20058;-73
2022/05/24 10:16:55;;;;;;;2.42;0.80;;;17.60;78.10;;;;;;4994729;28;20049;-75
2022/05/24 10:19:25;;;;;;;3.22;0.57;;;17.50;76.30;;;;;;4994810;28;20073;-75
2022/05/24 10:22:03;;;;;;;3.40;0.75;;;17.30;76.90;;;;;;4994586;28;20026;-73
2022/05/24 10:24:44;;;;;;;3.45;0.70;;;17.20;78.10;;;;;;4994465;28;20026;-75
2022/05/24 10:27:32;;;;;;;3.50;0.88;;;16.90;78.50;;;;;;4994752;28;20392;-74
2022/05/24 10:30:06;;;;;;;4.30;1.30;;;16.70;81.90;;;;;;4994868;28;20058;-82
2022/05/24 10:39:08;;;;;;;5.88;1.48;;;16.30;87.40;;;;;;4995019;28;20037;-85
2022/05/24 10:41:37;;;;;;;;;;;16.30;87.10;;;;;;4995122;28;20096;-79
2022/05/24 10:44:24;;;;;;;2.47;0.90;;;16.30;86.70;;;;;;5009495;28;19912;-83
2022/05/24 10:47:08;;;;;;;1.35;0.50;;;16.30;86.60;;;;;;4994404;28;20037;-80
2022/05/24 10:49:39;;;;;;;3.05;0.73;;;16.20;85.60;;;;;;4994500;28;20026;-83
2022/05/24 10:52:39;;;;;;;2.58;0.40;;;16.20;87.80;;;;;;4994460;28;20022;-83
2022/05/24 10:55:08;;;;;;;1.52;0.50;;;16.70;87.70;;;;;;5009414;28;20501;-75
2022/05/24 10:58:00;;;;;;;1.48;0.45;;;17.20;85.70;;;;;;5009427;28;20177;-74
2022/05/24 11:00:40;;;;;;;0.82;0.30;;;17.90;82.10;;;;;;4994029;28;20053;-74
2022/05/24 11:03:11;;;;;;;1.23;0.40;;;18.60;81.10;;;;;;4993885;28;20030;-75
2022/05/24 11:05:48;;;;;;;2.15;0.30;;;19.20;76.80;;;;;;4994175;28;20030;-84
2022/05/24 11:08:23;;;;;;;2.17;0.50;;;19.50;73.50;;;;;;4993649;28;20085;-83
2022/05/24 11:10:50;;;;;;;1.70;0.52;;;19.20;70.90;;;;;;4994163;28;20076;-83
2022/05/24 11:13:36;;;;;;;1.20;0.35;;;19.40;72.90;;;;;;4994059;28;20049;-83
2022/05/24 11:16:11;;;;;;;2.05;0.70;;;19.80;73.60;;;;;;4994028;28;20083;-84
2022/05/24 11:18:40;;;;;;;2.50;0.52;;;20.50;72.50;;;;;;5009381;28;20054;-82
2022/05/24 11:21:30;;;;;;;1.80;0.40;;;20.90;70.10;;;;;;4992700;28;20022;-82
2022/05/24 11:24:02;;;;;;;2.53;0.40;;;21.30;69.20;;;;;;4994048;28;20057;-83
2022/05/24 11:26:34;;;;;;;6.80;0.60;;;21.40;66.80;;;;;;4994079;28;20463;-83
2022/05/24 11:29:12;;;;;;;2.45;0.30;;;21.30;66.40;;;;;;4994239;28;20076;-84
2022/05/24 11:31:45;;;;;;;1.80;0.40;;;21.00;66.20;;;;;;4994256;28;20038;-85
2022/05/24 11:34:28;;;;;;;2.20;0.60;;;20.60;65.50;;;;;;4994131;28;20109;-84
2022/05/24 11:37:02;;;;;;;4.88;0.60;;;20.10;64.70;;;;;;4993944;28;20026;-76
2022/05/24 11:39:39;;;;;;;1.90;0.43;;;19.50;66.20;;;;;;4993661;28;20027;-73
2022/05/24 11:42:41;;;;;;;5.03;0.50;;;18.90;67.90;;;;;;4993793;28;20018;-75
2022/05/24 11:45:28;;;;;;;1.85;0.45;;;18.30;70.10;;;;;;4993768;28;20035;-85
2022/05/24 11:47:54;;;;;;;3.42;0.60;;;17.90;71.50;;;;;;4994133;28;20030;-81
2022/05/24 11:50:32;;;;;;;5.10;0.40;;;17.60;72.80;;;;;;4994080;28;20113;-82
2022/05/24 11:53:12;;;;;;;1.80;0.30;;;17.30;73.60;;;;;;4993827;28;20026;-82
2022/05/24 11:55:38;;;;;;;1.65;0.30;;;17.00;73.20;;;;;;5009206;28;20050;-82
2022/05/24 11:58:38;;;;;;;2.67;0.50;;;16.70;74.40;;;;;;5008798;28;20510;-82
2022/05/24 12:01:15;;;;;;;2.15;0.55;;;16.60;75.60;;;;;;4992621;28;20022;-83
2022/05/24 12:10:24;;;;;;;3.10;0.57;;;19.30;77.80;;;;;;4993032;28;20110;-82
2022/05/24 12:12:56;;;;;;;3.13;0.50;;;20.10;74.50;;;;;;4993212;28;20058;-73
2022/05/24 12:15:47;;;;;;;1.80;0.50;;;20.90;70.40;;;;;;5008333;28;20023;-75
2022/05/24 12:18:12;;;;;;;1.50;0.45;;;21.70;67.90;;;;;;5008294;28;20100;-73
2022/05/24 12:20:38;;;;;;;5.13;0.50;;;22.30;66.30;;;;;;4995752;28;20498;-75
2022/05/24 12:23:06;;;;;;;4.13;0.45;;;22.90;63.90;;;;;;4996480;28;20045;-74
2022/05/24 12:25:58;;;;;;;2.78;0.60;;;23.30;62.20;;;;;;4997514;28;20106;-82
2022/05/24 12:28:43;;;;;;;2.53;0.43;;;23.70;59.00;;;;;;4996690;28;20022;-82
2022/05/24 12:31:17;;;;;;;2.90;0.35;;;23.90;56.90;;;;;;5011606;28;20553;-84
2022/05/24 12:33:52;;;;;;;1.77;0.32;;;23.50;56.90;;;;;;5011606;28;20414;-73
2022/05/24 12:36:35;;;;;;;1.60;0.40;;;23.10;56.50;;;;;;4996356;28;20022;-74
2022/05/24 12:39:07;;;;;;;2.10;0.27;;;22.60;57.60;;;;;;4997893;28;20084;-84
2022/05/24 12:41:36;;;;;;;3.67;0.40;;;22.60;57.70;;;;;;4997076;28;20034;-82
2022/05/24 12:44:10;;;;;;;0.63;0.10;;;22.80;56.70;;;;;;4997580;28;20034;-81
2022/05/24 12:46:37;;;;;;;0.93;0.20;;;23.20;55.40;;;;;;4996437;28;20062;-81
2022/05/24 12:49:18;;;;;;;1.13;0.22;;;23.70;54.80;;;;;;4996773;28;20034;-81
2022/05/24 12:51:44;;;;;;;2.97;0.30;;;24.10;53.20;;;;;;4996514;28;20034;-83
2022/05/24 12:54:14;;;;;;;2.67;0.30;;;24.20;51.30;;;;;;5003558;28;20089;-74
2022/05/24 12:56:56;;;;;;;2.13;0.28;;;24.30;50.60;;;;;;4997537;28;20037;-83
2022/05/24 12:59:38;;;;;;;0.52;0.20;;;24.50;51.00;;;;;;5012853;28;20050;-74
2022/05/24 13:02:13;;;;;;;1.45;0.45;;;24.80;50.60;;;;;;4997565;28;20026;-74
2022/05/24 13:04:39;;;;;;;2.40;0.30;;;25.20;49.20;;;;;;4996278;28;20026;-82
2022/05/24 13:08:03;;;;;;;2.65;0.45;;;25.30;48.60;;;;;;4994809;28;20057;-84
2022/05/24 13:10:38;;;;;;;2.15;0.30;;;25.50;48.40;;;;;;4978679;28;20046;-82
2022/05/24 13:13:03;;;;;;;1.73;0.30;;;25.70;48.70;;;;;;4995931;28;20042;-84
2022/05/24 13:16:06;;;;;;;2.20;0.43;;;26.00;48.10;;;;;;4996518;28;20045;-75
2022/05/24 13:18:34;;;;;;;3.35;0.70;;;26.00;46.90;;;;;;4996069;28;20034;-75
2022/05/24 13:21:06;;;;;;;1.77;0.38;;;26.10;46.60;;;;;;5010702;28;20113;-74
2022/05/24 13:23:41;;;;;;;1.55;0.30;;;26.10;46.40;;;;;;4995460;28;20089;-74
2022/05/24 13:26:08;;;;;;;1.85;0.40;;;25.90;46.70;;;;;;4995366;28;20026;-74
2022/05/24 13:28:42;;;;;;;2.88;0.40;;;25.60;47.20;;;;;;4995528;28;20085;-74
2022/05/24 13:33:58;;;;;;;1.73;0.50;;;24.10;47.70;;;;;;4995479;28;20437;-74
2022/05/24 13:36:40;;;;;;;2.25;0.60;;;23.30;49.10;;;;;;4995439;28;20027;-74
2022/05/24 13:39:10;;;;;;;3.75;0.47;;;22.60;50.20;;;;;;4995291;28;20031;-74
2022/05/24 13:41:52;;;;;;;1.45;0.50;;;22.00;51.70;;;;;;4994213;28;20435;-74
2022/05/24 13:44:32;;;;;;;3.90;0.50;;;21.40;53.50;;;;;;4995084;28;20093;-75